createdAt,value
2018-11-25T00:00:26.109Z,21.93
2018-11-25T00:02:54.299Z,19.07
2018-11-25T00:05:22.523Z,19.47
2018-11-25T00:07:50.724Z,18.32
2018-11-25T00:10:18.933Z,17.17
2018-11-25T00:12:47.142Z,16.17
2018-11-25T00:15:15.372Z,17.35
2018-11-25T00:17:43.561Z,16.40
2018-11-25T00:20:13.241Z,16.63
2018-11-25T00:22:41.745Z,17.17
2018-11-25T00:25:11.974Z,17.02
2018-11-25T00:27:40.172Z,17.60
2018-11-25T00:30:10.076Z,16.20
2018-11-25T00:32:38.372Z,17.70
2018-11-25T00:35:07.743Z,17.60
2018-11-25T00:37:36.049Z,15.50
2018-11-25T00:40:05.490Z,18.80
2018-11-25T00:42:33.677Z,17.05
2018-11-25T00:45:01.959Z,16.33
2018-11-25T00:47:30.157Z,15.13
2018-11-25T00:49:58.354Z,17.27
2018-11-25T00:52:26.590Z,15.00
2018-11-25T00:54:54.806Z,19.23
2018-11-25T00:57:23.067Z,16.80
2018-11-25T00:59:51.263Z,17.57
2018-11-25T01:02:19.523Z,17.77
2018-11-25T01:04:47.701Z,17.30
2018-11-25T01:07:15.926Z,17.23
2018-11-25T01:09:44.153Z,17.95
2018-11-25T01:12:12.349Z,18.57
2018-11-25T01:14:40.558Z,18.77
2018-11-25T01:17:08.844Z,17.32
2018-11-25T01:19:37.037Z,17.10
2018-11-25T01:22:05.251Z,17.43
2018-11-25T01:24:33.473Z,16.45
2018-11-25T01:27:01.693Z,17.50
2018-11-25T01:29:29.888Z,16.73
2018-11-25T01:31:58.141Z,16.77
2018-11-25T01:34:26.381Z,16.43
2018-11-25T01:36:54.621Z,17.83
2018-11-25T01:39:22.824Z,15.55
2018-11-25T01:41:51.116Z,16.20
2018-11-25T01:44:19.377Z,15.57
2018-11-25T01:46:47.596Z,15.95
2018-11-25T01:49:15.806Z,15.70
2018-11-25T01:51:44.045Z,16.40
2018-11-25T01:54:12.255Z,16.42
2018-11-25T01:56:40.466Z,17.43
2018-11-25T01:59:08.698Z,17.87
2018-11-25T02:01:36.981Z,20.08
2018-11-25T02:04:05.292Z,18.63
2018-11-25T02:06:33.529Z,17.57
2018-11-25T02:09:01.728Z,16.80
2018-11-25T02:11:29.944Z,16.67
2018-11-25T02:13:58.185Z,16.87
2018-11-25T02:16:26.467Z,18.95
2018-11-25T02:18:54.713Z,20.50
2018-11-25T02:21:22.950Z,22.53
2018-11-25T02:23:51.184Z,19.48
2018-11-25T02:26:19.408Z,18.60
2018-11-25T02:28:47.613Z,19.17
2018-11-25T02:31:15.843Z,20.65
2018-11-25T02:33:44.071Z,20.43
2018-11-25T02:36:12.336Z,20.87
2018-11-25T02:38:40.558Z,20.62
2018-11-25T02:41:08.748Z,20.87
2018-11-25T02:43:36.992Z,19.77
2018-11-25T02:46:05.332Z,20.12
2018-11-25T02:48:33.788Z,18.30
2018-11-25T02:51:01.999Z,18.77
2018-11-25T02:53:30.289Z,18.30
2018-11-25T02:55:58.568Z,18.27
2018-11-25T02:58:26.781Z,18.03
2018-11-25T03:00:55.093Z,16.75
2018-11-25T03:03:23.445Z,19.33
2018-11-25T03:05:51.711Z,16.23
2018-11-25T03:08:19.976Z,16.50
2018-11-25T03:10:48.154Z,16.33
2018-11-25T03:13:16.433Z,18.23
2018-11-25T03:15:44.636Z,18.55
2018-11-25T03:18:12.894Z,18.40
2018-11-25T03:20:41.166Z,19.70
2018-11-25T03:23:09.355Z,19.90
2018-11-25T03:25:37.640Z,19.80
2018-11-25T03:28:06.278Z,19.47
2018-11-25T03:30:34.497Z,21.13
2018-11-25T03:33:02.705Z,20.67
2018-11-25T03:35:30.994Z,20.23
2018-11-25T03:37:59.210Z,20.70
2018-11-25T03:40:27.408Z,20.80
2018-11-25T03:42:55.573Z,19.27
2018-11-25T03:45:24.138Z,19.63
2018-11-25T03:47:52.830Z,20.07
2018-11-25T03:50:21.119Z,19.67
2018-11-25T03:52:49.344Z,18.83
2018-11-25T03:55:17.886Z,19.33
2018-11-25T03:57:46.154Z,20.80
2018-11-25T04:00:17.420Z,19.43
2018-11-25T04:02:45.664Z,20.30
2018-11-25T04:05:15.675Z,19.33
2018-11-25T04:07:43.875Z,19.13
2018-11-25T04:10:13.877Z,18.97
2018-11-25T04:12:42.087Z,19.30
2018-11-25T04:15:12.202Z,19.80
2018-11-25T04:17:40.571Z,20.27
2018-11-25T04:20:12.125Z,20.00
2018-11-25T04:22:40.367Z,20.03
2018-11-25T04:25:09.542Z,20.33
2018-11-25T04:27:37.792Z,18.60
2018-11-25T04:30:09.632Z,19.70
2018-11-25T04:32:37.840Z,18.23
2018-11-25T04:35:07.163Z,17.23
2018-11-25T04:37:35.473Z,16.35
2018-11-25T04:40:03.697Z,16.63
2018-11-25T04:42:31.928Z,17.43
2018-11-25T04:45:00.117Z,16.87
2018-11-25T04:47:28.346Z,17.83
2018-11-25T04:49:56.577Z,16.02
2018-11-25T04:52:24.791Z,16.37
2018-11-25T04:54:52.991Z,17.37
2018-11-25T04:57:21.181Z,17.57
2018-11-25T04:59:49.355Z,16.50
2018-11-25T05:02:17.548Z,15.90
2018-11-25T05:04:45.742Z,15.50
2018-11-25T05:07:13.933Z,16.57
2018-11-25T05:09:42.316Z,16.40
2018-11-25T05:12:10.629Z,15.43
2018-11-25T05:14:38.851Z,16.00
2018-11-25T05:17:07.100Z,15.87
2018-11-25T05:19:35.319Z,16.07
2018-11-25T05:22:03.505Z,15.13
2018-11-25T05:24:31.749Z,15.30
2018-11-25T05:27:00.056Z,14.78
2018-11-25T05:29:28.309Z,16.43
2018-11-25T05:31:56.794Z,16.47
2018-11-25T05:34:25.143Z,16.97
2018-11-25T05:36:53.365Z,16.67
2018-11-25T05:39:21.637Z,17.37
2018-11-25T05:41:49.892Z,17.63
2018-11-25T05:44:18.195Z,18.55
2018-11-25T05:46:46.439Z,19.87
2018-11-25T05:49:14.652Z,21.03
2018-11-25T05:51:42.881Z,21.23
2018-11-25T05:54:11.111Z,18.90
2018-11-25T05:56:39.343Z,20.00
2018-11-25T05:59:07.564Z,23.62
2018-11-25T06:01:35.819Z,22.87
2018-11-25T06:04:04.053Z,21.40
2018-11-25T06:06:32.306Z,22.48
2018-11-25T06:09:00.534Z,24.67
2018-11-25T06:11:28.760Z,26.17
2018-11-25T06:13:57.030Z,26.15
2018-11-25T06:16:25.278Z,23.43
2018-11-25T06:18:53.502Z,21.60
2018-11-25T06:21:21.796Z,21.65
2018-11-25T06:23:50.016Z,21.10
2018-11-25T06:26:18.279Z,23.83
2018-11-25T06:28:46.571Z,24.20
2018-11-25T06:31:14.780Z,20.10
2018-11-25T06:33:43.060Z,20.57
2018-11-25T06:36:11.331Z,21.52
2018-11-25T06:38:39.582Z,22.73
2018-11-25T06:41:07.804Z,21.63
2018-11-25T06:43:36.042Z,21.00
2018-11-25T06:46:06.697Z,22.13
2018-11-25T06:48:34.996Z,20.90
2018-11-25T06:51:03.245Z,20.70
2018-11-25T06:53:31.633Z,24.45
2018-11-25T06:56:00.385Z,20.53
2018-11-25T06:58:28.594Z,20.48
2018-11-25T07:00:56.791Z,20.87
2018-11-25T07:03:24.976Z,18.50
2018-11-25T07:05:53.321Z,19.60
2018-11-25T07:08:21.518Z,22.43
2018-11-25T07:10:49.966Z,20.80
2018-11-25T07:13:18.234Z,20.50
2018-11-25T07:15:46.848Z,22.87
2018-11-25T07:18:15.564Z,24.60
2018-11-25T07:20:43.800Z,25.48
2018-11-25T07:23:12.067Z,24.23
2018-11-25T07:25:40.351Z,24.37
2018-11-25T07:28:18.286Z,25.10
2018-11-25T07:30:36.984Z,22.70
2018-11-25T07:33:05.242Z,24.23
2018-11-25T07:35:33.511Z,21.25
2018-11-25T07:38:02.763Z,19.27
2018-11-25T07:40:31.032Z,21.33
2018-11-25T07:42:59.262Z,19.30
2018-11-25T07:45:30.745Z,20.47
2018-11-25T07:47:55.719Z,20.13
2018-11-25T07:50:27.480Z,20.32
2018-11-25T07:52:55.717Z,21.13
2018-11-25T07:55:24.900Z,24.97
2018-11-25T07:57:53.957Z,24.90
2018-11-25T08:00:23.170Z,26.60
2018-11-25T08:02:51.450Z,22.97
2018-11-25T08:05:21.845Z,24.70
2018-11-25T08:07:50.089Z,22.67
2018-11-25T08:10:18.316Z,23.47
2018-11-25T08:12:46.902Z,22.98
2018-11-25T08:15:16.729Z,25.03
2018-11-25T08:17:44.975Z,23.23
2018-11-25T08:20:14.300Z,21.40
2018-11-25T08:22:42.924Z,21.80
2018-11-25T08:25:12.174Z,25.33
2018-11-25T08:27:40.444Z,26.48
2018-11-25T08:30:16.525Z,25.70
2018-11-25T08:32:44.773Z,23.93
2018-11-25T08:35:13.791Z,24.47
2018-11-25T08:37:42.061Z,24.53
2018-11-25T08:40:12.260Z,24.37
2018-11-25T08:42:40.465Z,25.23
2018-11-25T08:45:10.056Z,24.33
2018-11-25T08:47:38.352Z,24.30
2018-11-25T08:50:12.145Z,22.53
2018-11-25T08:52:40.560Z,20.23
2018-11-25T08:55:10.353Z,22.27
2018-11-25T08:57:38.581Z,21.80
2018-11-25T09:00:12.458Z,22.07
2018-11-25T09:02:40.676Z,21.73
2018-11-25T09:05:10.346Z,20.97
2018-11-25T09:07:38.613Z,21.73
2018-11-25T09:10:09.936Z,20.77
2018-11-25T09:12:38.176Z,20.93
2018-11-25T09:15:10.187Z,19.90
2018-11-25T09:17:38.461Z,21.40
2018-11-25T09:20:08.951Z,22.13
2018-11-25T09:22:37.183Z,20.57
2018-11-25T09:25:07.204Z,28.57
2018-11-25T09:27:35.447Z,25.10
2018-11-25T09:30:03.689Z,22.97
2018-11-25T09:32:31.892Z,26.42
2018-11-25T09:35:00.080Z,21.97
2018-11-25T09:37:28.261Z,20.97
2018-11-25T09:39:56.437Z,20.35
2018-11-25T09:42:24.679Z,24.57
2018-11-25T09:44:52.883Z,22.67
2018-11-25T09:47:21.102Z,23.80
2018-11-25T09:49:49.328Z,21.93
2018-11-25T09:52:18.167Z,22.17
2018-11-25T09:54:46.353Z,21.13
2018-11-25T09:57:14.584Z,23.50
2018-11-25T09:59:42.774Z,21.87
2018-11-25T10:02:10.962Z,22.37
2018-11-25T10:04:39.140Z,22.62
2018-11-25T10:07:07.380Z,23.03
2018-11-25T10:09:35.601Z,23.73
2018-11-25T10:12:03.794Z,22.25
2018-11-25T10:14:31.966Z,23.27
2018-11-25T10:17:00.143Z,21.13
2018-11-25T10:19:28.374Z,22.93
2018-11-25T10:21:56.781Z,20.63
2018-11-25T10:24:24.976Z,20.68
2018-11-25T10:26:53.154Z,28.30
2018-11-25T10:29:21.329Z,22.10
2018-11-25T10:31:49.540Z,19.73
2018-11-25T10:34:17.726Z,22.30
2018-11-25T10:36:45.925Z,21.07
2018-11-25T10:39:14.517Z,19.53
2018-11-25T10:41:42.355Z,20.80
2018-11-25T10:44:10.557Z,15.53
2018-11-25T10:46:38.725Z,18.80
2018-11-25T10:49:06.922Z,17.52
2018-11-25T10:51:35.100Z,18.87
2018-11-25T10:54:03.286Z,17.43
2018-11-25T10:56:31.518Z,16.90
2018-11-25T10:58:59.715Z,15.00
2018-11-25T11:01:33.405Z,14.57
2018-11-25T11:04:01.596Z,11.93
2018-11-25T11:06:35.225Z,12.57
2018-11-25T11:09:03.605Z,11.53
2018-11-25T11:11:31.772Z,11.22
2018-11-25T11:14:00.206Z,11.03
2018-11-25T11:16:28.551Z,10.57
2018-11-25T11:18:56.795Z,9.93
2018-11-25T11:21:24.979Z,9.88
2018-11-25T11:23:53.180Z,9.97
2018-11-25T11:26:26.148Z,10.07
2018-11-25T11:28:54.400Z,9.87
2018-11-25T11:31:22.601Z,9.20
2018-11-25T11:33:50.810Z,8.85
2018-11-25T11:36:19.018Z,10.63
2018-11-25T11:38:47.238Z,9.40
2018-11-25T11:41:15.446Z,9.48
2018-11-25T11:43:43.674Z,10.50
2018-11-25T11:46:11.921Z,10.13
2018-11-25T11:48:40.126Z,9.45
2018-11-25T11:51:08.365Z,8.83
2018-11-25T11:53:36.561Z,9.60
2018-11-25T11:56:04.836Z,9.48
2018-11-25T11:58:33.060Z,7.90
2018-11-25T12:01:01.286Z,8.73
2018-11-25T12:03:29.487Z,7.53
2018-11-25T12:05:57.694Z,8.40
2018-11-25T12:08:25.878Z,7.83
2018-11-25T12:10:54.118Z,8.05
2018-11-25T12:13:22.367Z,8.73
2018-11-25T12:15:50.557Z,8.50
2018-11-25T12:18:18.786Z,7.95
2018-11-25T12:20:46.969Z,8.10
2018-11-25T12:23:15.161Z,8.03
2018-11-25T12:25:43.358Z,8.85
2018-11-25T12:28:11.547Z,8.50
2018-11-25T12:30:39.821Z,7.90
2018-11-25T12:33:08.021Z,6.42
2018-11-25T12:35:36.223Z,7.73
2018-11-25T12:38:04.408Z,8.13
2018-11-25T12:40:32.647Z,8.45
2018-11-25T12:43:00.821Z,7.77
2018-11-25T12:45:29.076Z,7.70
2018-11-25T12:47:57.297Z,8.80
2018-11-25T12:50:26.295Z,9.37
2018-11-25T12:52:54.798Z,7.27
2018-11-25T12:55:24.195Z,7.70
2018-11-25T12:57:52.560Z,8.00
2018-11-25T13:00:38.227Z,7.90
2018-11-25T13:03:08.672Z,9.03
2018-11-25T13:05:36.858Z,8.93
2018-11-25T13:08:05.343Z,9.20
2018-11-25T13:10:33.534Z,9.13
2018-11-25T13:13:01.786Z,9.07
2018-11-25T13:15:30.015Z,9.90
2018-11-25T13:17:58.235Z,9.65
2018-11-25T13:20:26.452Z,9.63
2018-11-25T13:22:54.660Z,10.77
2018-11-25T13:25:22.879Z,10.75
2018-11-25T13:27:51.111Z,10.60
2018-11-25T13:30:22.675Z,10.57
2018-11-25T13:32:51.957Z,11.53
2018-11-25T13:35:20.136Z,10.87
2018-11-25T13:37:48.325Z,11.80
2018-11-25T13:40:16.933Z,13.62
2018-11-25T13:42:45.162Z,12.83
2018-11-25T13:45:13.384Z,12.97
2018-11-25T13:47:41.562Z,14.05
2018-11-25T13:50:10.750Z,13.90
2018-11-25T13:52:40.301Z,12.13
2018-11-25T13:55:15.919Z,13.97
2018-11-25T13:57:44.125Z,14.33
2018-11-25T14:00:44.959Z,13.90
2018-11-25T14:03:17.432Z,14.83
2018-11-25T14:05:52.634Z,12.27
2018-11-25T14:08:13.877Z,13.93
2018-11-25T14:10:42.176Z,15.58
2018-11-25T14:13:10.391Z,13.67
2018-11-25T14:15:38.580Z,14.40
2018-11-25T14:18:07.150Z,14.73
2018-11-25T14:20:35.308Z,15.53
2018-11-25T14:23:03.515Z,15.20
2018-11-25T14:25:31.776Z,15.55
2018-11-25T14:28:06.845Z,14.53
2018-11-25T14:30:35.142Z,14.97
2018-11-25T14:33:03.472Z,13.83
2018-11-25T14:35:31.685Z,15.00
2018-11-25T14:37:59.901Z,15.07
2018-11-25T14:40:28.319Z,13.80
2018-11-25T14:42:56.581Z,15.23
2018-11-25T14:45:24.800Z,14.07
2018-11-25T14:47:53.787Z,14.07
2018-11-25T14:50:22.015Z,14.03
2018-11-25T14:52:51.581Z,14.40
2018-11-25T14:55:20.194Z,13.47
2018-11-25T14:57:48.427Z,14.85
2018-11-25T15:00:18.556Z,12.67
2018-11-25T15:02:48.288Z,13.33
2018-11-25T15:05:18.969Z,14.27
2018-11-25T15:07:47.168Z,14.70
2018-11-25T15:10:15.400Z,13.93
2018-11-25T15:12:43.659Z,13.78
2018-11-25T15:15:13.181Z,15.27
2018-11-25T15:17:42.193Z,14.53
2018-11-25T15:20:11.485Z,13.97
2018-11-25T15:22:40.078Z,15.40
2018-11-25T15:25:11.420Z,15.43
2018-11-25T15:27:39.608Z,15.20
2018-11-25T15:30:09.729Z,16.10
2018-11-25T15:32:39.315Z,15.37
2018-11-25T15:35:09.317Z,15.60
2018-11-25T15:37:38.538Z,15.80
2018-11-25T15:40:18.115Z,16.67
2018-11-25T15:42:46.353Z,17.00
2018-11-25T15:45:14.620Z,21.77
2018-11-25T15:47:44.641Z,23.38
2018-11-25T15:50:14.555Z,19.90
2018-11-25T15:52:42.747Z,17.40
2018-11-25T15:55:12.559Z,18.40
2018-11-25T15:57:40.817Z,20.03
2018-11-25T16:00:11.980Z,19.37
2018-11-25T16:02:40.238Z,20.13
2018-11-25T16:05:10.471Z,18.77
2018-11-25T16:07:38.667Z,28.17
2018-11-25T16:10:10.186Z,19.70
2018-11-25T16:12:38.579Z,54.97
2018-11-25T16:15:09.147Z,54.48
2018-11-25T16:17:37.367Z,57.63
2018-11-25T16:20:09.343Z,22.10
2018-11-25T16:22:37.606Z,28.33
2018-11-25T16:25:10.592Z,22.60
2018-11-25T16:27:38.832Z,22.27
2018-11-25T16:30:09.789Z,21.93
2018-11-25T16:32:38.140Z,23.13
2018-11-25T16:35:08.321Z,20.43
2018-11-25T16:37:36.732Z,21.80
2018-11-25T16:40:08.465Z,19.80
2018-11-25T16:42:36.688Z,19.83
2018-11-25T16:45:06.472Z,19.43
2018-11-25T16:47:34.821Z,23.03
2018-11-25T16:50:03.096Z,22.02
2018-11-25T16:52:31.799Z,21.48
2018-11-25T16:55:00.113Z,21.33
2018-11-25T16:57:28.335Z,19.83
2018-11-25T16:59:56.694Z,19.82
2018-11-25T17:02:24.951Z,20.20
2018-11-25T17:04:53.217Z,21.43
2018-11-25T17:07:21.476Z,21.02
2018-11-25T17:09:50.198Z,20.00
2018-11-25T17:12:18.470Z,20.75
2018-11-25T17:14:46.953Z,22.03
2018-11-25T17:17:15.212Z,20.88
2018-11-25T17:19:43.443Z,20.73
2018-11-25T17:22:16.411Z,21.20
2018-11-25T17:24:39.934Z,20.97
2018-11-25T17:27:08.172Z,20.90
2018-11-25T17:29:36.417Z,21.57
2018-11-25T17:32:04.855Z,20.60
2018-11-25T17:34:33.101Z,23.13
2018-11-25T17:37:01.317Z,20.60
2018-11-25T17:39:29.532Z,20.27
2018-11-25T17:41:57.827Z,22.07
2018-11-25T17:44:26.131Z,20.03
2018-11-25T17:46:54.960Z,20.45
2018-11-25T17:49:23.179Z,20.90
2018-11-25T17:51:51.404Z,20.10
2018-11-25T17:54:19.599Z,21.05
2018-11-25T17:56:47.948Z,19.60
2018-11-25T17:59:16.137Z,21.07
2018-11-25T18:01:44.382Z,20.65
2018-11-25T18:04:12.605Z,22.23
2018-11-25T18:06:40.919Z,21.60
2018-11-25T18:09:11.146Z,20.72
2018-11-25T18:11:40.584Z,21.83
2018-11-25T18:14:12.010Z,20.87
2018-11-25T18:16:40.407Z,22.27
2018-11-25T18:19:17.041Z,20.65
2018-11-25T18:21:45.266Z,20.67
2018-11-25T18:24:13.562Z,22.27
2018-11-25T18:26:41.736Z,20.45
2018-11-25T18:29:09.981Z,20.87
2018-11-25T18:31:38.249Z,22.47
2018-11-25T18:34:06.452Z,22.02
2018-11-25T18:36:34.684Z,21.57
2018-11-25T18:39:02.921Z,18.77
2018-11-25T18:41:31.155Z,21.48
2018-11-25T18:43:59.360Z,22.53
2018-11-25T18:46:46.900Z,22.67
2018-11-25T18:49:10.360Z,20.57
2018-11-25T18:51:38.861Z,21.07
2018-11-25T18:57:00.921Z,21.47
2018-11-25T18:59:29.238Z,21.97
2018-11-25T19:02:00.110Z,21.17
2018-11-25T19:04:29.214Z,22.00
2018-11-25T19:06:57.493Z,21.43
2018-11-25T19:09:25.708Z,22.17
2018-11-25T19:11:53.957Z,21.33
2018-11-25T19:14:22.173Z,20.43
2018-11-25T19:16:50.512Z,21.30
2018-11-25T19:19:18.791Z,20.80
2018-11-25T19:21:47.084Z,21.27
2018-11-25T19:24:15.296Z,20.50
2018-11-25T19:26:43.864Z,20.90
2018-11-25T19:29:12.174Z,21.73
2018-11-25T19:31:40.415Z,22.17
2018-11-25T19:34:08.633Z,20.30
2018-11-25T19:36:36.898Z,22.10
2018-11-25T19:39:08.495Z,20.87
2018-11-25T19:41:36.726Z,20.73
2018-11-25T19:44:05.568Z,20.70
2018-11-25T19:46:33.782Z,21.13
2018-11-25T19:49:01.996Z,19.82
2018-11-25T19:51:30.337Z,21.17
2018-11-25T19:53:58.656Z,19.80
2018-11-25T19:56:28.870Z,20.05
2018-11-25T19:58:59.355Z,19.73
2018-11-25T20:01:31.770Z,20.90
2018-11-25T20:04:00.026Z,20.93
2018-11-25T20:06:28.257Z,19.43
2018-11-25T20:08:56.506Z,21.25
2018-11-25T20:11:24.778Z,19.90
2018-11-25T20:13:53.042Z,21.97
2018-11-25T20:16:26.797Z,20.85
2018-11-25T20:18:55.121Z,20.53
2018-11-25T20:21:28.761Z,21.82
2018-11-25T20:23:57.003Z,20.80
2018-11-25T20:26:25.242Z,20.30
2018-11-25T20:28:53.537Z,21.42
2018-11-25T20:31:21.850Z,19.73
2018-11-25T20:33:52.633Z,22.10
2018-11-25T20:36:20.661Z,22.23
2018-11-25T20:38:54.205Z,20.63
2018-11-25T20:41:22.395Z,21.47
2018-11-25T20:43:50.769Z,20.87
2018-11-25T20:46:24.616Z,22.00
2018-11-25T20:48:52.990Z,20.50
2018-11-25T20:51:25.719Z,22.32
2018-11-25T20:53:57.420Z,22.47
2018-11-25T20:56:29.149Z,20.87
2018-11-25T20:58:57.439Z,19.60
2018-11-25T21:01:25.733Z,22.70
2018-11-25T21:03:54.098Z,21.05
2018-11-25T21:06:32.344Z,21.60
2018-11-25T21:09:00.588Z,22.87
2018-11-25T21:11:28.804Z,21.10
2018-11-25T21:13:57.056Z,20.75
2018-11-25T21:16:25.323Z,20.97
2018-11-25T21:18:53.530Z,20.60
2018-11-25T21:21:21.755Z,21.15
2018-11-25T21:23:49.999Z,22.50
2018-11-25T21:26:18.341Z,22.20
2018-11-25T21:28:46.740Z,20.00
2018-11-25T21:31:15.035Z,20.07
2018-11-25T21:33:43.212Z,21.13
2018-11-25T21:36:11.561Z,21.82
2018-11-25T21:38:40.043Z,19.87
2018-11-25T21:41:08.293Z,20.57
2018-11-25T21:43:36.656Z,21.37
2018-11-25T21:46:05.278Z,21.87
2018-11-25T21:48:33.871Z,19.67
2018-11-25T21:51:02.459Z,18.85
2018-11-25T21:53:30.828Z,20.77
2018-11-25T21:55:59.053Z,19.90
2018-11-25T21:58:28.828Z,21.53
2018-11-25T22:00:55.580Z,21.17
2018-11-25T22:03:24.100Z,21.05
2018-11-25T22:05:52.422Z,21.43
2018-11-25T22:08:20.782Z,20.57
2018-11-25T22:10:49.169Z,21.50
2018-11-25T22:13:17.511Z,20.87
2018-11-25T22:15:45.850Z,20.17
2018-11-25T22:18:14.168Z,20.40
2018-11-25T22:20:42.443Z,19.82
2018-11-25T22:23:11.175Z,22.33
2018-11-25T22:25:40.093Z,20.02
2018-11-25T22:28:08.832Z,19.98
2018-11-25T22:30:37.084Z,21.23
2018-11-25T22:33:06.110Z,18.67
2018-11-25T22:35:34.554Z,20.60
2018-11-25T22:38:02.918Z,20.62
2018-11-25T22:40:31.240Z,19.27
2018-11-25T22:42:59.494Z,20.20
2018-11-25T22:45:28.461Z,20.40
2018-11-25T22:47:57.352Z,20.03
2018-11-25T22:50:27.703Z,19.80
2018-11-25T22:52:54.337Z,18.45
2018-11-25T22:55:23.933Z,18.90
2018-11-25T22:57:52.189Z,18.95
2018-11-25T23:00:23.013Z,19.70
2018-11-25T23:02:51.237Z,20.03
2018-11-25T23:05:31.033Z,19.63
2018-11-25T23:07:59.818Z,20.43
2018-11-25T23:10:28.182Z,17.80
2018-11-25T23:12:56.633Z,20.70
2018-11-25T23:15:24.965Z,19.52
2018-11-25T23:17:53.238Z,19.70
2018-11-25T23:20:21.688Z,19.47
2018-11-25T23:22:50.098Z,20.70
2018-11-25T23:25:18.890Z,19.37
2018-11-25T23:27:47.477Z,19.67
2018-11-25T23:30:15.736Z,20.97
2018-11-25T23:32:44.017Z,19.87
2018-11-25T23:35:16.100Z,19.13
2018-11-25T23:37:44.601Z,18.87
2018-11-25T23:40:12.843Z,20.00
2018-11-25T23:42:41.321Z,18.10
2018-11-25T23:45:11.882Z,20.48
2018-11-25T23:47:40.176Z,17.37
2018-11-25T23:50:10.455Z,18.17
2018-11-25T23:52:38.910Z,18.37
2018-11-25T23:55:08.541Z,18.05
2018-11-25T23:57:36.836Z,17.67
